sensor_id;sensor_type;location;lat;lon;timestamp;P1;durP1;ratioP1;P2;durP2;ratioP2
10248;SDS011;5169;50.560;9.714;2022-12-10T00:01:44;12.40;;;8.20;;
10248;SDS011;5169;50.560;9.714;2022-12-10T00:04:10;14.43;;;8.67;;
10248;SDS011;5169;50.560;9.714;2022-12-10T00:06:37;12.67;;;8.23;;
10248;SDS011;5169;50.560;9.714;2022-12-10T00:09:09;16.40;;;8.10;;
10248;SDS011;5169;50.560;9.714;2022-12-10T00:11:37;11.67;;;7.93;;
10248;SDS011;5169;50.560;9.714;2022-12-10T00:14:10;13.50;;;7.80;;
10248;SDS011;5169;50.560;9.714;2022-12-10T00:16:37;13.43;;;8.47;;
10248;SDS011;5169;50.560;9.714;2022-12-10T00:19:06;13.10;;;8.33;;
10248;SDS011;5169;50.560;9.714;2022-12-10T00:21:33;12.03;;;7.97;;
10248;SDS011;5169;50.560;9.714;2022-12-10T00:24:02;13.13;;;7.93;;
10248;SDS011;5169;50.560;9.714;2022-12-10T00:26:32;15.13;;;8.27;;
10248;SDS011;5169;50.560;9.714;2022-12-10T00:29:01;14.80;;;8.43;;
10248;SDS011;5169;50.560;9.714;2022-12-10T00:31:38;14.00;;;8.80;;
10248;SDS011;5169;50.560;9.714;2022-12-10T00:34:10;13.90;;;8.40;;
10248;SDS011;5169;50.560;9.714;2022-12-10T00:36:45;16.40;;;9.17;;
10248;SDS011;5169;50.560;9.714;2022-12-10T00:39:13;14.23;;;8.93;;
10248;SDS011;5169;50.560;9.714;2022-12-10T00:41:45;15.13;;;9.47;;
10248;SDS011;5169;50.560;9.714;2022-12-10T00:44:11;15.33;;;9.23;;
10248;SDS011;5169;50.560;9.714;2022-12-10T00:46:37;14.60;;;9.13;;
10248;SDS011;5169;50.560;9.714;2022-12-10T00:49:07;14.23;;;9.37;;
10248;SDS011;5169;50.560;9.714;2022-12-10T00:51:36;13.23;;;8.33;;
10248;SDS011;5169;50.560;9.714;2022-12-10T00:54:02;13.53;;;8.20;;
10248;SDS011;5169;50.560;9.714;2022-12-10T00:56:36;16.03;;;9.70;;
10248;SDS011;5169;50.560;9.714;2022-12-10T00:59:01;15.73;;;9.20;;
10248;SDS011;5169;50.560;9.714;2022-12-10T01:01:32;15.10;;;9.17;;
10248;SDS011;5169;50.560;9.714;2022-12-10T01:04:01;13.10;;;8.53;;
10248;SDS011;5169;50.560;9.714;2022-12-10T01:06:39;13.20;;;8.97;;
10248;SDS011;5169;50.560;9.714;2022-12-10T01:09:10;11.60;;;8.27;;
10248;SDS011;5169;50.560;9.714;2022-12-10T01:11:38;14.60;;;8.73;;
10248;SDS011;5169;50.560;9.714;2022-12-10T01:14:12;15.20;;;9.40;;
10248;SDS011;5169;50.560;9.714;2022-12-10T01:16:46;14.83;;;8.50;;
10248;SDS011;5169;50.560;9.714;2022-12-10T01:19:12;14.37;;;9.50;;
10248;SDS011;5169;50.560;9.714;2022-12-10T01:21:38;16.53;;;8.67;;
10248;SDS011;5169;50.560;9.714;2022-12-10T01:24:10;13.23;;;8.57;;
10248;SDS011;5169;50.560;9.714;2022-12-10T01:26:36;15.77;;;9.13;;
10248;SDS011;5169;50.560;9.714;2022-12-10T01:29:03;17.00;;;9.50;;
10248;SDS011;5169;50.560;9.714;2022-12-10T01:31:35;15.70;;;9.07;;
10248;SDS011;5169;50.560;9.714;2022-12-10T01:34:02;14.27;;;9.00;;
10248;SDS011;5169;50.560;9.714;2022-12-10T01:36:30;13.90;;;8.77;;
10248;SDS011;5169;50.560;9.714;2022-12-10T01:39:04;13.37;;;8.27;;
10248;SDS011;5169;50.560;9.714;2022-12-10T01:41:48;12.53;;;8.53;;
10248;SDS011;5169;50.560;9.714;2022-12-10T01:46:48;13.40;;;8.90;;
10248;SDS011;5169;50.560;9.714;2022-12-10T01:49:20;11.20;;;7.70;;
10248;SDS011;5169;50.560;9.714;2022-12-10T01:52:01;12.27;;;8.37;;
10248;SDS011;5169;50.560;9.714;2022-12-10T01:54:29;12.33;;;7.90;;
10248;SDS011;5169;50.560;9.714;2022-12-10T01:57:04;12.47;;;7.60;;
10248;SDS011;5169;50.560;9.714;2022-12-10T01:59:36;13.87;;;9.03;;
10248;SDS011;5169;50.560;9.714;2022-12-10T02:13:30;12.70;;;8.13;;
10248;SDS011;5169;50.560;9.714;2022-12-10T02:16:22;14.23;;;8.50;;
10248;SDS011;5169;50.560;9.714;2022-12-10T02:21:56;13.27;;;8.50;;
10248;SDS011;5169;50.560;9.714;2022-12-10T02:24:25;14.87;;;9.40;;
10248;SDS011;5169;50.560;9.714;2022-12-10T02:26:57;13.70;;;9.30;;
10248;SDS011;5169;50.560;9.714;2022-12-10T02:29:43;13.30;;;8.67;;
10248;SDS011;5169;50.560;9.714;2022-12-10T02:32:31;15.67;;;9.97;;
10248;SDS011;5169;50.560;9.714;2022-12-10T02:35:06;14.20;;;9.40;;
10248;SDS011;5169;50.560;9.714;2022-12-10T02:37:42;15.10;;;9.03;;
10248;SDS011;5169;50.560;9.714;2022-12-10T02:40:23;14.07;;;9.23;;
10248;SDS011;5169;50.560;9.714;2022-12-10T02:42:55;18.10;;;10.03;;
10248;SDS011;5169;50.560;9.714;2022-12-10T02:45:24;15.53;;;9.60;;
10248;SDS011;5169;50.560;9.714;2022-12-10T02:48:00;15.37;;;10.53;;
10248;SDS011;5169;50.560;9.714;2022-12-10T02:50:29;15.30;;;9.60;;
10248;SDS011;5169;50.560;9.714;2022-12-10T02:52:55;17.20;;;10.70;;
10248;SDS011;5169;50.560;9.714;2022-12-10T02:55:23;17.47;;;10.60;;
10248;SDS011;5169;50.560;9.714;2022-12-10T03:00:21;18.00;;;11.17;;
10248;SDS011;5169;50.560;9.714;2022-12-10T03:08:42;17.87;;;10.63;;
10248;SDS011;5169;50.560;9.714;2022-12-10T03:11:30;15.87;;;10.20;;
10248;SDS011;5169;50.560;9.714;2022-12-10T03:14:40;13.40;;;9.13;;
10248;SDS011;5169;50.560;9.714;2022-12-10T03:16:49;15.37;;;9.03;;
10248;SDS011;5169;50.560;9.714;2022-12-10T03:19:24;17.53;;;9.83;;
10248;SDS011;5169;50.560;9.714;2022-12-10T03:22:07;15.97;;;9.57;;
10248;SDS011;5169;50.560;9.714;2022-12-10T03:24:36;14.27;;;9.63;;
10248;SDS011;5169;50.560;9.714;2022-12-10T03:27:06;17.73;;;10.13;;
10248;SDS011;5169;50.560;9.714;2022-12-10T03:29:34;15.73;;;9.97;;
10248;SDS011;5169;50.560;9.714;2022-12-10T03:32:19;16.30;;;9.77;;
10248;SDS011;5169;50.560;9.714;2022-12-10T03:34:52;16.33;;;9.53;;
10248;SDS011;5169;50.560;9.714;2022-12-10T03:37:23;16.07;;;9.87;;
10248;SDS011;5169;50.560;9.714;2022-12-10T03:39:53;15.00;;;8.90;;
10248;SDS011;5169;50.560;9.714;2022-12-10T03:42:21;15.43;;;9.67;;
10248;SDS011;5169;50.560;9.714;2022-12-10T03:44:50;14.40;;;8.57;;
10248;SDS011;5169;50.560;9.714;2022-12-10T03:47:16;13.20;;;9.00;;
10248;SDS011;5169;50.560;9.714;2022-12-10T03:49:45;14.77;;;9.20;;
10248;SDS011;5169;50.560;9.714;2022-12-10T03:52:13;16.33;;;9.60;;
10248;SDS011;5169;50.560;9.714;2022-12-10T03:54:39;15.83;;;9.60;;
10248;SDS011;5169;50.560;9.714;2022-12-10T03:57:04;16.03;;;8.53;;
10248;SDS011;5169;50.560;9.714;2022-12-10T03:59:39;13.37;;;8.53;;
10248;SDS011;5169;50.560;9.714;2022-12-10T04:02:04;14.53;;;9.57;;
10248;SDS011;5169;50.560;9.714;2022-12-10T04:04:38;16.20;;;9.43;;
10248;SDS011;5169;50.560;9.714;2022-12-10T04:07:04;13.60;;;8.77;;
10248;SDS011;5169;50.560;9.714;2022-12-10T04:09:38;15.37;;;9.20;;
10248;SDS011;5169;50.560;9.714;2022-12-10T04:12:03;19.93;;;10.03;;
10248;SDS011;5169;50.560;9.714;2022-12-10T04:14:35;14.80;;;9.67;;
10248;SDS011;5169;50.560;9.714;2022-12-10T04:17:21;15.83;;;10.00;;
10248;SDS011;5169;50.560;9.714;2022-12-10T04:19:46;15.53;;;9.23;;
10248;SDS011;5169;50.560;9.714;2022-12-10T04:22:12;15.20;;;9.77;;
10248;SDS011;5169;50.560;9.714;2022-12-10T04:24:59;14.73;;;9.37;;
10248;SDS011;5169;50.560;9.714;2022-12-10T04:27:45;17.23;;;10.17;;
10248;SDS011;5169;50.560;9.714;2022-12-10T04:30:23;14.13;;;9.53;;
10248;SDS011;5169;50.560;9.714;2022-12-10T04:32:49;15.40;;;9.83;;
10248;SDS011;5169;50.560;9.714;2022-12-10T04:35:17;16.27;;;10.77;;
10248;SDS011;5169;50.560;9.714;2022-12-10T04:37:45;16.83;;;9.60;;
10248;SDS011;5169;50.560;9.714;2022-12-10T04:40:11;14.30;;;8.70;;
10248;SDS011;5169;50.560;9.714;2022-12-10T04:42:37;15.03;;;9.53;;
10248;SDS011;5169;50.560;9.714;2022-12-10T04:45:02;16.90;;;10.23;;
10248;SDS011;5169;50.560;9.714;2022-12-10T04:47:30;16.40;;;10.33;;
10248;SDS011;5169;50.560;9.714;2022-12-10T04:49:59;16.23;;;10.10;;
10248;SDS011;5169;50.560;9.714;2022-12-10T04:52:25;16.40;;;10.00;;
10248;SDS011;5169;50.560;9.714;2022-12-10T04:54:53;17.40;;;10.30;;
10248;SDS011;5169;50.560;9.714;2022-12-10T04:57:25;16.73;;;9.87;;
10248;SDS011;5169;50.560;9.714;2022-12-10T04:59:50;16.37;;;9.30;;
10248;SDS011;5169;50.560;9.714;2022-12-10T05:02:16;16.73;;;9.87;;
10248;SDS011;5169;50.560;9.714;2022-12-10T05:04:48;16.40;;;10.27;;
10248;SDS011;5169;50.560;9.714;2022-12-10T05:07:16;17.53;;;10.50;;
10248;SDS011;5169;50.560;9.714;2022-12-10T05:09:42;16.97;;;10.37;;
10248;SDS011;5169;50.560;9.714;2022-12-10T05:12:10;16.13;;;9.87;;
10248;SDS011;5169;50.560;9.714;2022-12-10T05:14:36;17.93;;;10.50;;
10248;SDS011;5169;50.560;9.714;2022-12-10T05:17:02;17.00;;;10.47;;
10248;SDS011;5169;50.560;9.714;2022-12-10T05:19:27;16.53;;;10.03;;
10248;SDS011;5169;50.560;9.714;2022-12-10T05:21:53;18.30;;;10.50;;
10248;SDS011;5169;50.560;9.714;2022-12-10T05:24:38;17.63;;;10.67;;
10248;SDS011;5169;50.560;9.714;2022-12-10T05:27:04;20.17;;;10.50;;
10248;SDS011;5169;50.560;9.714;2022-12-10T05:29:30;17.13;;;10.00;;
10248;SDS011;5169;50.560;9.714;2022-12-10T05:32:02;17.53;;;10.43;;
10248;SDS011;5169;50.560;9.714;2022-12-10T05:34:29;18.00;;;11.23;;
10248;SDS011;5169;50.560;9.714;2022-12-10T05:37:00;18.50;;;10.10;;
10248;SDS011;5169;50.560;9.714;2022-12-10T05:39:25;18.77;;;10.53;;
10248;SDS011;5169;50.560;9.714;2022-12-10T05:41:51;18.87;;;11.60;;
10248;SDS011;5169;50.560;9.714;2022-12-10T05:44:16;19.00;;;10.40;;
10248;SDS011;5169;50.560;9.714;2022-12-10T05:46:46;19.33;;;10.80;;
10248;SDS011;5169;50.560;9.714;2022-12-10T05:49:12;17.80;;;10.40;;
10248;SDS011;5169;50.560;9.714;2022-12-10T05:51:38;17.57;;;10.73;;
10248;SDS011;5169;50.560;9.714;2022-12-10T05:54:04;16.77;;;9.93;;
10248;SDS011;5169;50.560;9.714;2022-12-10T05:56:38;19.07;;;11.00;;
10248;SDS011;5169;50.560;9.714;2022-12-10T05:59:03;19.10;;;11.60;;
10248;SDS011;5169;50.560;9.714;2022-12-10T06:01:38;17.20;;;10.80;;
10248;SDS011;5169;50.560;9.714;2022-12-10T06:04:04;17.70;;;10.83;;
10248;SDS011;5169;50.560;9.714;2022-12-10T06:06:31;17.73;;;10.20;;
10248;SDS011;5169;50.560;9.714;2022-12-10T06:09:06;18.80;;;11.30;;
10248;SDS011;5169;50.560;9.714;2022-12-10T06:11:37;17.30;;;10.67;;
10248;SDS011;5169;50.560;9.714;2022-12-10T06:14:02;17.80;;;10.60;;
10248;SDS011;5169;50.560;9.714;2022-12-10T06:16:28;19.93;;;11.30;;
10248;SDS011;5169;50.560;9.714;2022-12-10T06:18:54;20.03;;;11.30;;
10248;SDS011;5169;50.560;9.714;2022-12-10T06:21:37;17.17;;;10.07;;
10248;SDS011;5169;50.560;9.714;2022-12-10T06:24:10;17.60;;;10.50;;
10248;SDS011;5169;50.560;9.714;2022-12-10T06:26:36;19.40;;;11.30;;
10248;SDS011;5169;50.560;9.714;2022-12-10T06:29:04;18.87;;;10.90;;
10248;SDS011;5169;50.560;9.714;2022-12-10T06:31:34;19.67;;;10.53;;
10248;SDS011;5169;50.560;9.714;2022-12-10T06:34:00;19.07;;;10.80;;
10248;SDS011;5169;50.560;9.714;2022-12-10T06:36:25;15.83;;;9.87;;
10248;SDS011;5169;50.560;9.714;2022-12-10T06:38:53;17.50;;;10.43;;
10248;SDS011;5169;50.560;9.714;2022-12-10T06:41:22;16.87;;;10.50;;
10248;SDS011;5169;50.560;9.714;2022-12-10T06:43:48;14.87;;;9.53;;
10248;SDS011;5169;50.560;9.714;2022-12-10T06:46:17;17.17;;;9.77;;
10248;SDS011;5169;50.560;9.714;2022-12-10T06:48:46;17.63;;;9.30;;
10248;SDS011;5169;50.560;9.714;2022-12-10T06:51:14;15.97;;;9.20;;
10248;SDS011;5169;50.560;9.714;2022-12-10T06:53:42;16.07;;;9.43;;
10248;SDS011;5169;50.560;9.714;2022-12-10T06:56:11;16.80;;;9.30;;
10248;SDS011;5169;50.560;9.714;2022-12-10T06:58:41;16.47;;;9.57;;
10248;SDS011;5169;50.560;9.714;2022-12-10T07:03:38;13.53;;;7.90;;
10248;SDS011;5169;50.560;9.714;2022-12-10T07:06:05;15.83;;;9.27;;
10248;SDS011;5169;50.560;9.714;2022-12-10T07:08:32;14.43;;;8.50;;
10248;SDS011;5169;50.560;9.714;2022-12-10T07:10:57;14.30;;;8.07;;
10248;SDS011;5169;50.560;9.714;2022-12-10T07:13:31;13.77;;;8.37;;
10248;SDS011;5169;50.560;9.714;2022-12-10T07:16:03;16.20;;;9.23;;
10248;SDS011;5169;50.560;9.714;2022-12-10T07:18:42;14.00;;;8.50;;
10248;SDS011;5169;50.560;9.714;2022-12-10T07:23:43;13.87;;;8.07;;
10248;SDS011;5169;50.560;9.714;2022-12-10T07:26:08;16.20;;;9.70;;
10248;SDS011;5169;50.560;9.714;2022-12-10T07:28:34;16.40;;;8.63;;
10248;SDS011;5169;50.560;9.714;2022-12-10T07:31:08;17.77;;;9.60;;
10248;SDS011;5169;50.560;9.714;2022-12-10T07:33:39;14.07;;;8.93;;
10248;SDS011;5169;50.560;9.714;2022-12-10T07:36:09;14.57;;;8.60;;
10248;SDS011;5169;50.560;9.714;2022-12-10T07:38:42;14.37;;;8.87;;
10248;SDS011;5169;50.560;9.714;2022-12-10T07:41:12;14.23;;;8.53;;
10248;SDS011;5169;50.560;9.714;2022-12-10T07:43:46;15.93;;;9.07;;
10248;SDS011;5169;50.560;9.714;2022-12-10T07:48:53;15.43;;;8.97;;
10248;SDS011;5169;50.560;9.714;2022-12-10T07:51:20;14.20;;;8.43;;
10248;SDS011;5169;50.560;9.714;2022-12-10T07:53:51;15.40;;;9.17;;
10248;SDS011;5169;50.560;9.714;2022-12-10T07:56:18;14.20;;;8.63;;
10248;SDS011;5169;50.560;9.714;2022-12-10T07:58:50;14.83;;;8.30;;
10248;SDS011;5169;50.560;9.714;2022-12-10T08:01:17;14.80;;;8.47;;
10248;SDS011;5169;50.560;9.714;2022-12-10T08:03:51;13.97;;;9.10;;
10248;SDS011;5169;50.560;9.714;2022-12-10T08:06:19;14.87;;;8.70;;
10248;SDS011;5169;50.560;9.714;2022-12-10T08:08:46;16.97;;;8.50;;
10248;SDS011;5169;50.560;9.714;2022-12-10T08:11:20;13.27;;;8.30;;
10248;SDS011;5169;50.560;9.714;2022-12-10T08:13:47;15.83;;;9.13;;
10248;SDS011;5169;50.560;9.714;2022-12-10T08:16:17;16.17;;;10.00;;
10248;SDS011;5169;50.560;9.714;2022-12-10T08:18:44;15.73;;;9.67;;
10248;SDS011;5169;50.560;9.714;2022-12-10T08:21:11;16.83;;;8.80;;
10248;SDS011;5169;50.560;9.714;2022-12-10T08:23:41;18.83;;;10.13;;
10248;SDS011;5169;50.560;9.714;2022-12-10T08:26:08;15.07;;;8.70;;
10248;SDS011;5169;50.560;9.714;2022-12-10T08:28:39;13.50;;;7.93;;
10248;SDS011;5169;50.560;9.714;2022-12-10T08:31:11;12.07;;;7.90;;
10248;SDS011;5169;50.560;9.714;2022-12-10T08:33:43;15.30;;;8.67;;
10248;SDS011;5169;50.560;9.714;2022-12-10T08:36:22;14.60;;;8.63;;
10248;SDS011;5169;50.560;9.714;2022-12-10T08:38:51;14.97;;;8.77;;
10248;SDS011;5169;50.560;9.714;2022-12-10T08:41:22;15.80;;;8.27;;
10248;SDS011;5169;50.560;9.714;2022-12-10T08:43:51;14.47;;;8.07;;
10248;SDS011;5169;50.560;9.714;2022-12-10T08:46:20;13.80;;;8.23;;
10248;SDS011;5169;50.560;9.714;2022-12-10T08:48:51;16.40;;;8.43;;
10248;SDS011;5169;50.560;9.714;2022-12-10T08:51:19;14.23;;;7.73;;
10248;SDS011;5169;50.560;9.714;2022-12-10T08:53:57;13.50;;;7.67;;
10248;SDS011;5169;50.560;9.714;2022-12-10T08:56:23;14.70;;;7.70;;
10248;SDS011;5169;50.560;9.714;2022-12-10T08:58:56;11.87;;;6.73;;
10248;SDS011;5169;50.560;9.714;2022-12-10T09:01:22;14.03;;;8.23;;
10248;SDS011;5169;50.560;9.714;2022-12-10T09:03:47;15.83;;;9.07;;
10248;SDS011;5169;50.560;9.714;2022-12-10T09:06:22;12.83;;;8.30;;
10248;SDS011;5169;50.560;9.714;2022-12-10T09:08:53;12.07;;;7.33;;
10248;SDS011;5169;50.560;9.714;2022-12-10T09:11:31;12.23;;;7.73;;
10248;SDS011;5169;50.560;9.714;2022-12-10T09:13:58;11.63;;;7.37;;
10248;SDS011;5169;50.560;9.714;2022-12-10T09:16:31;10.10;;;6.97;;
10248;SDS011;5169;50.560;9.714;2022-12-10T09:19:00;10.17;;;6.90;;
10248;SDS011;5169;50.560;9.714;2022-12-10T09:21:29;13.03;;;7.03;;
10248;SDS011;5169;50.560;9.714;2022-12-10T09:23:58;10.87;;;6.47;;
10248;SDS011;5169;50.560;9.714;2022-12-10T09:26:31;11.40;;;7.30;;
10248;SDS011;5169;50.560;9.714;2022-12-10T09:28:58;12.27;;;7.13;;
10248;SDS011;5169;50.560;9.714;2022-12-10T09:31:27;13.30;;;7.73;;
10248;SDS011;5169;50.560;9.714;2022-12-10T09:33:53;10.60;;;7.07;;
10248;SDS011;5169;50.560;9.714;2022-12-10T09:36:20;10.43;;;6.97;;
10248;SDS011;5169;50.560;9.714;2022-12-10T09:38:46;9.50;;;6.27;;
10248;SDS011;5169;50.560;9.714;2022-12-10T09:46:56;9.50;;;6.13;;
10248;SDS011;5169;50.560;9.714;2022-12-10T09:51:54;10.07;;;6.50;;
10248;SDS011;5169;50.560;9.714;2022-12-10T09:54:31;11.20;;;6.10;;
10248;SDS011;5169;50.560;9.714;2022-12-10T09:56:58;9.93;;;6.27;;
10248;SDS011;5169;50.560;9.714;2022-12-10T09:59:42;10.23;;;6.93;;
10248;SDS011;5169;50.560;9.714;2022-12-10T10:02:30;12.23;;;7.00;;
10248;SDS011;5169;50.560;9.714;2022-12-10T10:07:28;8.93;;;5.90;;
10248;SDS011;5169;50.560;9.714;2022-12-10T10:09:57;8.63;;;6.20;;
10248;SDS011;5169;50.560;9.714;2022-12-10T10:12:31;9.50;;;6.03;;
10248;SDS011;5169;50.560;9.714;2022-12-10T10:15:18;10.53;;;7.20;;
10248;SDS011;5169;50.560;9.714;2022-12-10T10:17:53;10.03;;;6.30;;
10248;SDS011;5169;50.560;9.714;2022-12-10T10:20:19;8.10;;;5.40;;
10248;SDS011;5169;50.560;9.714;2022-12-10T10:22:45;7.03;;;5.13;;
10248;SDS011;5169;50.560;9.714;2022-12-10T10:25:18;10.63;;;6.07;;
10248;SDS011;5169;50.560;9.714;2022-12-10T10:27:44;8.77;;;5.57;;
10248;SDS011;5169;50.560;9.714;2022-12-10T10:30:17;9.47;;;6.00;;
10248;SDS011;5169;50.560;9.714;2022-12-10T10:32:47;9.90;;;6.30;;
10248;SDS011;5169;50.560;9.714;2022-12-10T10:35:31;8.30;;;5.80;;
10248;SDS011;5169;50.560;9.714;2022-12-10T10:38:12;8.97;;;5.63;;
10248;SDS011;5169;50.560;9.714;2022-12-10T10:41:00;9.47;;;5.73;;
10248;SDS011;5169;50.560;9.714;2022-12-10T10:43:32;9.90;;;5.90;;
10248;SDS011;5169;50.560;9.714;2022-12-10T10:48:41;10.23;;;6.40;;
10248;SDS011;5169;50.560;9.714;2022-12-10T10:51:14;10.70;;;7.10;;
10248;SDS011;5169;50.560;9.714;2022-12-10T10:53:55;8.83;;;6.10;;
10248;SDS011;5169;50.560;9.714;2022-12-10T10:56:32;10.07;;;6.50;;
10248;SDS011;5169;50.560;9.714;2022-12-10T11:01:54;11.73;;;7.27;;
10248;SDS011;5169;50.560;9.714;2022-12-10T11:04:37;10.50;;;6.97;;
10248;SDS011;5169;50.560;9.714;2022-12-10T11:07:25;11.17;;;7.03;;
10248;SDS011;5169;50.560;9.714;2022-12-10T11:09:55;10.13;;;6.13;;
10248;SDS011;5169;50.560;9.714;2022-12-10T11:12:33;10.43;;;6.80;;
10248;SDS011;5169;50.560;9.714;2022-12-10T11:17:56;9.33;;;6.73;;
10248;SDS011;5169;50.560;9.714;2022-12-10T11:20:31;12.37;;;7.70;;
10248;SDS011;5169;50.560;9.714;2022-12-10T11:23:01;12.27;;;7.47;;
10248;SDS011;5169;50.560;9.714;2022-12-10T11:34:14;11.73;;;7.30;;
10248;SDS011;5169;50.560;9.714;2022-12-10T11:37:14;10.37;;;7.43;;
10248;SDS011;5169;50.560;9.714;2022-12-10T11:43:16;12.43;;;8.13;;
10248;SDS011;5169;50.560;9.714;2022-12-10T12:00:25;10.93;;;7.30;;
10248;SDS011;5169;50.560;9.714;2022-12-10T12:12:02;11.83;;;7.57;;
10248;SDS011;5169;50.560;9.714;2022-12-10T12:14:44;10.97;;;7.13;;
10248;SDS011;5169;50.560;9.714;2022-12-10T12:17:21;9.07;;;5.97;;
10248;SDS011;5169;50.560;9.714;2022-12-10T12:20:00;9.97;;;6.20;;
10248;SDS011;5169;50.560;9.714;2022-12-10T12:22:37;6.83;;;4.80;;
10248;SDS011;5169;50.560;9.714;2022-12-10T12:25:22;7.90;;;5.13;;
10248;SDS011;5169;50.560;9.714;2022-12-10T12:28:16;7.27;;;4.90;;
10248;SDS011;5169;50.560;9.714;2022-12-10T12:31:13;7.20;;;5.90;;
10248;SDS011;5169;50.560;9.714;2022-12-10T12:33:56;8.33;;;5.37;;
10248;SDS011;5169;50.560;9.714;2022-12-10T12:36:46;8.53;;;6.20;;
10248;SDS011;5169;50.560;9.714;2022-12-10T12:45:12;8.80;;;6.10;;
10248;SDS011;5169;50.560;9.714;2022-12-10T12:53:33;8.80;;;5.83;;
10248;SDS011;5169;50.560;9.714;2022-12-10T12:56:17;8.97;;;5.73;;
10248;SDS011;5169;50.560;9.714;2022-12-10T13:04:10;8.67;;;5.40;;
10248;SDS011;5169;50.560;9.714;2022-12-10T13:06:37;6.80;;;4.37;;
10248;SDS011;5169;50.560;9.714;2022-12-10T13:09:24;7.17;;;4.90;;
10248;SDS011;5169;50.560;9.714;2022-12-10T13:20:51;7.83;;;5.93;;
10248;SDS011;5169;50.560;9.714;2022-12-10T13:23:47;7.83;;;5.77;;
10248;SDS011;5169;50.560;9.714;2022-12-10T13:26:22;7.43;;;5.70;;
10248;SDS011;5169;50.560;9.714;2022-12-10T13:29:06;6.17;;;4.80;;
10248;SDS011;5169;50.560;9.714;2022-12-10T13:31:39;6.37;;;4.77;;
10248;SDS011;5169;50.560;9.714;2022-12-10T13:34:21;7.23;;;5.43;;
10248;SDS011;5169;50.560;9.714;2022-12-10T13:39:32;6.63;;;4.73;;
10248;SDS011;5169;50.560;9.714;2022-12-10T13:49:59;7.13;;;4.67;;
10248;SDS011;5169;50.560;9.714;2022-12-10T14:00:38;6.87;;;4.90;;
10248;SDS011;5169;50.560;9.714;2022-12-10T14:06:15;7.03;;;4.67;;
10248;SDS011;5169;50.560;9.714;2022-12-10T14:11:24;7.50;;;5.50;;
10248;SDS011;5169;50.560;9.714;2022-12-10T14:14:00;7.53;;;4.90;;
10248;SDS011;5169;50.560;9.714;2022-12-10T14:16:27;6.73;;;5.23;;
10248;SDS011;5169;50.560;9.714;2022-12-10T14:18:59;8.00;;;5.67;;
10248;SDS011;5169;50.560;9.714;2022-12-10T14:21:38;7.50;;;5.77;;
10248;SDS011;5169;50.560;9.714;2022-12-10T14:24:25;8.10;;;5.73;;
10248;SDS011;5169;50.560;9.714;2022-12-10T14:27:23;8.47;;;6.37;;
10248;SDS011;5169;50.560;9.714;2022-12-10T14:29:50;9.53;;;6.43;;
10248;SDS011;5169;50.560;9.714;2022-12-10T14:32:37;10.13;;;6.27;;
10248;SDS011;5169;50.560;9.714;2022-12-10T14:35:04;8.10;;;5.90;;
10248;SDS011;5169;50.560;9.714;2022-12-10T14:37:39;9.23;;;6.83;;
10248;SDS011;5169;50.560;9.714;2022-12-10T14:40:17;8.47;;;6.40;;
10248;SDS011;5169;50.560;9.714;2022-12-10T14:42:51;12.03;;;7.67;;
10248;SDS011;5169;50.560;9.714;2022-12-10T14:45:38;13.40;;;8.90;;
10248;SDS011;5169;50.560;9.714;2022-12-10T14:48:12;10.00;;;6.73;;
10248;SDS011;5169;50.560;9.714;2022-12-10T14:50:44;9.70;;;7.00;;
10248;SDS011;5169;50.560;9.714;2022-12-10T14:53:26;9.73;;;6.17;;
10248;SDS011;5169;50.560;9.714;2022-12-10T14:55:57;10.97;;;6.87;;
10248;SDS011;5169;50.560;9.714;2022-12-10T14:58:47;8.60;;;6.40;;
10248;SDS011;5169;50.560;9.714;2022-12-10T15:01:33;7.47;;;5.53;;
10248;SDS011;5169;50.560;9.714;2022-12-10T15:04:03;8.83;;;5.07;;
10248;SDS011;5169;50.560;9.714;2022-12-10T15:06:38;8.23;;;5.57;;
10248;SDS011;5169;50.560;9.714;2022-12-10T15:09:04;9.80;;;6.97;;
10248;SDS011;5169;50.560;9.714;2022-12-10T15:11:57;8.53;;;5.77;;
10248;SDS011;5169;50.560;9.714;2022-12-10T15:14:26;10.20;;;5.93;;
10248;SDS011;5169;50.560;9.714;2022-12-10T15:16:57;9.37;;;6.53;;
10248;SDS011;5169;50.560;9.714;2022-12-10T15:19:23;8.33;;;5.53;;
10248;SDS011;5169;50.560;9.714;2022-12-10T15:24:49;8.33;;;6.17;;
10248;SDS011;5169;50.560;9.714;2022-12-10T15:27:15;8.77;;;6.03;;
10248;SDS011;5169;50.560;9.714;2022-12-10T15:29:46;12.17;;;6.60;;
10248;SDS011;5169;50.560;9.714;2022-12-10T15:32:22;10.07;;;6.83;;
10248;SDS011;5169;50.560;9.714;2022-12-10T15:34:58;10.33;;;7.17;;
10248;SDS011;5169;50.560;9.714;2022-12-10T15:37:26;12.07;;;7.77;;
10248;SDS011;5169;50.560;9.714;2022-12-10T15:39:59;9.33;;;6.70;;
10248;SDS011;5169;50.560;9.714;2022-12-10T15:42:44;11.37;;;7.47;;
10248;SDS011;5169;50.560;9.714;2022-12-10T15:47:45;9.90;;;6.80;;
10248;SDS011;5169;50.560;9.714;2022-12-10T15:50:11;9.40;;;6.60;;
10248;SDS011;5169;50.560;9.714;2022-12-10T15:52:37;10.03;;;6.27;;
10248;SDS011;5169;50.560;9.714;2022-12-10T15:55:12;9.97;;;6.63;;
10248;SDS011;5169;50.560;9.714;2022-12-10T15:57:39;16.03;;;8.57;;
10248;SDS011;5169;50.560;9.714;2022-12-10T16:00:22;13.83;;;8.50;;
10248;SDS011;5169;50.560;9.714;2022-12-10T16:02:58;13.40;;;8.63;;
10248;SDS011;5169;50.560;9.714;2022-12-10T16:05:34;14.10;;;9.27;;
10248;SDS011;5169;50.560;9.714;2022-12-10T16:08:06;9.67;;;5.63;;
10248;SDS011;5169;50.560;9.714;2022-12-10T16:10:34;11.90;;;7.33;;
10248;SDS011;5169;50.560;9.714;2022-12-10T16:13:04;10.40;;;5.93;;
10248;SDS011;5169;50.560;9.714;2022-12-10T16:16:10;12.13;;;7.07;;
10248;SDS011;5169;50.560;9.714;2022-12-10T16:18:35;7.57;;;5.73;;
10248;SDS011;5169;50.560;9.714;2022-12-10T16:21:04;9.73;;;5.57;;
10248;SDS011;5169;50.560;9.714;2022-12-10T16:23:34;10.40;;;6.03;;
10248;SDS011;5169;50.560;9.714;2022-12-10T16:26:08;9.83;;;5.70;;
10248;SDS011;5169;50.560;9.714;2022-12-10T16:28:37;9.53;;;6.27;;
10248;SDS011;5169;50.560;9.714;2022-12-10T16:31:07;8.53;;;6.23;;
10248;SDS011;5169;50.560;9.714;2022-12-10T16:33:40;7.73;;;5.30;;
10248;SDS011;5169;50.560;9.714;2022-12-10T16:36:15;8.97;;;6.27;;
10248;SDS011;5169;50.560;9.714;2022-12-10T16:38:41;9.03;;;6.30;;
10248;SDS011;5169;50.560;9.714;2022-12-10T16:41:15;10.13;;;6.27;;
10248;SDS011;5169;50.560;9.714;2022-12-10T16:43:51;11.43;;;7.50;;
10248;SDS011;5169;50.560;9.714;2022-12-10T16:46:18;9.83;;;6.80;;
10248;SDS011;5169;50.560;9.714;2022-12-10T16:48:48;12.73;;;7.77;;
10248;SDS011;5169;50.560;9.714;2022-12-10T16:51:15;13.30;;;7.30;;
10248;SDS011;5169;50.560;9.714;2022-12-10T16:53:48;10.23;;;7.40;;
10248;SDS011;5169;50.560;9.714;2022-12-10T16:56:18;13.13;;;8.17;;
10248;SDS011;5169;50.560;9.714;2022-12-10T16:58:47;11.10;;;7.40;;
10248;SDS011;5169;50.560;9.714;2022-12-10T17:01:16;13.47;;;8.13;;
10248;SDS011;5169;50.560;9.714;2022-12-10T17:03:50;15.50;;;8.40;;
10248;SDS011;5169;50.560;9.714;2022-12-10T17:06:16;15.90;;;8.80;;
10248;SDS011;5169;50.560;9.714;2022-12-10T17:08:52;16.97;;;8.80;;
10248;SDS011;5169;50.560;9.714;2022-12-10T17:14:04;16.87;;;9.27;;
10248;SDS011;5169;50.560;9.714;2022-12-10T17:16:35;15.17;;;9.07;;
10248;SDS011;5169;50.560;9.714;2022-12-10T17:19:03;14.33;;;8.57;;
10248;SDS011;5169;50.560;9.714;2022-12-10T17:21:29;12.20;;;7.87;;
10248;SDS011;5169;50.560;9.714;2022-12-10T17:23:59;14.13;;;8.03;;
10248;SDS011;5169;50.560;9.714;2022-12-10T17:26:26;15.40;;;8.13;;
10248;SDS011;5169;50.560;9.714;2022-12-10T17:28:54;15.10;;;8.87;;
10248;SDS011;5169;50.560;9.714;2022-12-10T17:31:27;13.87;;;8.50;;
10248;SDS011;5169;50.560;9.714;2022-12-10T17:34:00;15.80;;;8.07;;
10248;SDS011;5169;50.560;9.714;2022-12-10T17:36:25;14.17;;;8.23;;
10248;SDS011;5169;50.560;9.714;2022-12-10T17:38:54;17.77;;;9.37;;
10248;SDS011;5169;50.560;9.714;2022-12-10T17:41:28;12.13;;;7.60;;
10248;SDS011;5169;50.560;9.714;2022-12-10T17:43:54;12.80;;;8.83;;